PWSweather.com
Personal Weather Stations
Station Observations
RADILLY
Mcmurray, PA 15317

Mcmurray, PA 15317

Lat: 40.288, Lon: -80.095

Elevation: 1061

Station Type: Ambient WS-2080

http://dillys.org/wx/

Latest ConditionsUpdated 9:45:00 AM EDT Sunday, Jun 16, 2019
Currently Today's Max Today's Min Today's Average
Temperature 70.2°F21.2°C 70.3°F21.3°C 64.9°F18.3°C 67.8°F19.9°C
Dew Point 66.1°F18.9°C 66.1°F18.9°C 59.5°F15.3°C 63.3°F17.4°C
Winds 3.1 mph SW5.0 kmh SW 3.8 mph -6.1 kmh - - 1.0 mph 1.6 kmh
Wind Gusts 5.4 mph8.7 kmh 6.9 mph11.1 kmh - -
Humidity 87% 96% 69% 86%
Pressure 29.91 in1012.9 mb 29.93 in1013.5 mb 29.84 in1010.5 mb -
Precipitation - 0.12 in3.0 mm - -
Hour Temp Dew Point Humidity Winds Wind Gusts Pressure Precip Precip Rate Daily Precip Total
09:45 AM 70.2°F21.2°C 66.1°F18.9°C 87% 3.1 mph SW5.0 kmh SW 5.4 mph8.7 kmh 29.91 in1012.9 mb 0.00 in0.0 mm 0.00 in0.0 mm 0.12 in3.0 mm
09:30 AM 69.6°F20.9°C 65.9°F18.8°C 88% 2.2 mph SW3.5 kmh SW 6.0 mph9.7 kmh 29.91 in1012.9 mb 0.00 in0.0 mm 0.00 in0.0 mm 0.12 in3.0 mm
09:15 AM 69.4°F20.8°C 66.1°F18.9°C 89% 1.6 mph WSW2.6 kmh WSW 6.9 mph11.1 kmh 29.91 in1012.9 mb 0.00 in0.0 mm 0.00 in0.0 mm 0.12 in3.0 mm
09:00 AM 69.1°F20.6°C 66.0°F18.9°C 90% 3.1 mph WSW5.0 kmh WSW 5.4 mph8.7 kmh 29.91 in1012.9 mb 0.00 in0.0 mm 0.00 in0.0 mm 0.12 in3.0 mm
08:45 AM 68.5°F20.3°C 65.5°F18.6°C 90% 3.8 mph WSW6.1 kmh WSW 6.0 mph9.7 kmh 29.90 in1012.5 mb 0.00 in0.0 mm 0.00 in0.0 mm 0.12 in3.0 mm
08:30 AM 68.4°F20.2°C 65.3°F18.5°C 90% 3.1 mph WSW5.0 kmh WSW 5.4 mph8.7 kmh 29.88 in1011.9 mb 0.00 in0.0 mm 0.00 in0.0 mm 0.12 in3.0 mm
08:15 AM 68.4°F20.2°C 65.6°F18.7°C 91% 1.6 mph SW2.6 kmh SW 5.4 mph8.7 kmh 29.89 in1012.2 mb 0.00 in0.0 mm 0.00 in0.0 mm 0.12 in3.0 mm
08:00 AM 68.0°F20.0°C 65.3°F18.5°C 91% 1.6 mph SW2.6 kmh SW 4.5 mph7.2 kmh 29.88 in1011.9 mb 0.00 in0.0 mm 0.00 in0.0 mm 0.12 in3.0 mm
07:45 AM 67.8°F19.9°C 65.4°F18.6°C 92% 3.1 mph SW5.0 kmh SW 6.0 mph9.7 kmh 29.88 in1011.9 mb 0.00 in0.0 mm 0.00 in0.0 mm 0.12 in3.0 mm
07:30 AM 67.5°F19.7°C 65.4°F18.6°C 93% 2.2 mph SW3.5 kmh SW 5.4 mph8.7 kmh 29.88 in1011.9 mb 0.00 in0.0 mm 0.00 in0.0 mm 0.12 in3.0 mm
07:15 AM 67.1°F19.5°C 65.3°F18.5°C 94% 2.2 mph WSW3.5 kmh WSW 4.5 mph7.2 kmh 29.86 in1011.2 mb 0.00 in0.0 mm 0.00 in0.0 mm 0.12 in3.0 mm
07:00 AM 66.7°F19.3°C 65.3°F18.5°C 95% 0.7 mph SW1.1 kmh SW 5.4 mph8.7 kmh 29.86 in1011.2 mb 0.00 in0.0 mm 0.00 in0.0 mm 0.12 in3.0 mm
06:45 AM 66.0°F18.9°C 64.8°F18.2°C 96% 1.6 mph SW2.6 kmh SW 6.0 mph9.7 kmh 29.85 in1010.8 mb 0.00 in0.0 mm 0.00 in0.0 mm 0.12 in3.0 mm
06:30 AM 65.5°F18.6°C 64.3°F17.9°C 96% 0.7 mph E1.1 kmh E 4.5 mph7.2 kmh 29.84 in1010.5 mb 0.00 in0.0 mm 0.00 in0.0 mm 0.12 in3.0 mm
06:15 AM 65.1°F18.4°C 64.0°F17.8°C 96% 0.7 mph ENE1.1 kmh ENE 5.4 mph8.7 kmh 29.85 in1010.8 mb 0.00 in0.0 mm 0.00 in0.0 mm 0.12 in3.0 mm
06:00 AM 65.1°F18.4°C 64.0°F17.8°C 96% Calm Calm 2.2 mph3.5 kmh 29.86 in1011.2 mb 0.00 in0.0 mm 0.00 in0.0 mm 0.12 in3.0 mm
05:45 AM 64.9°F18.3°C 63.8°F17.7°C 96% Calm Calm 1.6 mph2.6 kmh 29.85 in1010.8 mb 0.00 in0.0 mm 0.00 in0.0 mm 0.12 in3.0 mm
05:30 AM 64.9°F18.3°C 63.5°F17.5°C 95% Calm Calm 1.6 mph2.6 kmh 29.85 in1010.8 mb 0.01 in0.3 mm 0.00 in0.0 mm 0.12 in3.0 mm
05:15 AM 64.9°F18.3°C 63.5°F17.5°C 95% Calm Calm 2.2 mph3.5 kmh 29.85 in1010.8 mb 0.03 in0.8 mm 0.00 in0.0 mm 0.12 in3.0 mm
05:00 AM 64.9°F18.3°C 63.5°F17.5°C 95% Calm Calm 1.6 mph2.6 kmh 29.85 in1010.8 mb 0.03 in0.8 mm 0.00 in0.0 mm 0.12 in3.0 mm
04:45 AM 64.9°F18.3°C 63.2°F17.3°C 94% Calm Calm 1.6 mph2.6 kmh 29.86 in1011.2 mb 0.06 in1.5 mm 0.00 in0.0 mm 0.12 in3.0 mm
04:30 AM 65.1°F18.4°C 63.3°F17.4°C 94% Calm Calm 1.6 mph2.6 kmh 29.86 in1011.2 mb 0.08 in2.0 mm 0.00 in0.0 mm 0.10 in2.5 mm
04:15 AM 65.3°F18.5°C 63.2°F17.3°C 93% Calm Calm 3.1 mph5.0 kmh 29.87 in1011.5 mb 0.08 in2.0 mm 0.00 in0.0 mm 0.08 in2.0 mm
04:00 AM 65.7°F18.7°C 63.3°F17.4°C 92% 0.7 mph NNE1.1 kmh NNE 2.2 mph3.5 kmh 29.88 in1011.9 mb 0.08 in2.0 mm 0.01 in0.3 mm 0.08 in2.0 mm
03:45 AM 66.7°F19.3°C 62.4°F16.9°C 86% 1.6 mph N2.6 kmh N 2.2 mph3.5 kmh 29.89 in1012.2 mb 0.07 in1.8 mm 0.24 in6.1 mm 0.07 in1.8 mm
03:30 AM 68.5°F20.3°C 61.8°F16.6°C 79% 0.7 mph WSW1.1 kmh WSW 3.1 mph5.0 kmh 29.90 in1012.5 mb 0.01 in0.3 mm 0.04 in1.0 mm 0.02 in0.5 mm
03:15 AM 70.3°F21.3°C 60.5°F15.8°C 71% 0.7 mph SW1.1 kmh SW 5.4 mph8.7 kmh 29.91 in1012.9 mb 0.00 in0.0 mm 0.00 in0.0 mm 0.00 in0.0 mm
03:00 AM 70.3°F21.3°C 60.1°F15.6°C 70% 1.6 mph SW2.6 kmh SW 4.5 mph7.2 kmh 29.90 in1012.5 mb 0.00 in0.0 mm 0.00 in0.0 mm 0.00 in0.0 mm
02:45 AM 70.2°F21.2°C 59.5°F15.3°C 69% Calm Calm 1.6 mph2.6 kmh 29.90 in1012.5 mb 0.00 in0.0 mm 0.00 in0.0 mm 0.00 in0.0 mm
02:30 AM 70.2°F21.2°C 59.9°F15.5°C 70% Calm Calm -- 29.91 in1012.9 mb 0.00 in0.0 mm 0.00 in0.0 mm 0.00 in0.0 mm
02:15 AM 70.3°F21.3°C 60.1°F15.6°C 70% 0.7 mph N1.1 kmh N 1.6 mph2.6 kmh 29.90 in1012.5 mb 0.00 in0.0 mm 0.00 in0.0 mm 0.00 in0.0 mm
02:00 AM 69.8°F21.0°C 60.0°F15.6°C 71% Calm Calm 2.2 mph3.5 kmh 29.91 in1012.9 mb 0.00 in0.0 mm 0.00 in0.0 mm 0.00 in0.0 mm
01:45 AM 69.6°F20.9°C 61.0°F16.1°C 74% Calm Calm 0.7 mph1.1 kmh 29.91 in1012.9 mb 0.00 in0.0 mm 0.00 in0.0 mm 0.00 in0.0 mm
01:30 AM 69.3°F20.7°C 61.4°F16.3°C 76% Calm Calm 1.6 mph2.6 kmh 29.91 in1012.9 mb 0.00 in0.0 mm 0.00 in0.0 mm 0.00 in0.0 mm
01:15 AM 68.9°F20.5°C 62.1°F16.7°C 79% 0.7 mph N1.1 kmh N 1.6 mph2.6 kmh 29.92 in1013.2 mb 0.00 in0.0 mm 0.00 in0.0 mm 0.00 in0.0 mm
01:00 AM 68.5°F20.3°C 62.1°F16.7°C 80% Calm Calm -- 29.92 in1013.2 mb 0.00 in0.0 mm 0.00 in0.0 mm 0.00 in0.0 mm
12:45 AM 68.5°F20.3°C 62.5°F16.9°C 81% Calm Calm -- 29.92 in1013.2 mb 0.00 in0.0 mm 0.00 in0.0 mm 0.00 in0.0 mm
12:30 AM 68.7°F20.4°C 62.7°F17.1°C 81% Calm Calm 1.6 mph2.6 kmh 29.93 in1013.5 mb 0.00 in0.0 mm 0.00 in0.0 mm 0.00 in0.0 mm
12:15 AM 69.1°F20.6°C 62.6°F17.0°C 80% 0.7 mph N1.1 kmh N 1.6 mph2.6 kmh 29.93 in1013.5 mb 0.00 in0.0 mm 0.00 in0.0 mm 0.00 in0.0 mm
12:00 AM 69.4°F20.8°C 62.3°F16.8°C 78% 0.7 mph N1.1 kmh N 1.6 mph2.6 kmh 29.93 in1013.5 mb 0.00 in0.0 mm 0.00 in0.0 mm 0.00 in0.0 mm